首页
METAR-TAF:

METAR-TAF

机场 :

查塔努加, 田纳西州, 美国

纬度: 35-02-00N, 经度: 085-12-00W, 海拔: 207米

当前天气观测

该预报发布于1小时和2分钟前的04:53 UTC
静风
温度 23°C
湿度 78%
气压 1019 hPa
能見度: 16.1公里
天空无云

METAR: KCHA 270453Z 00000KT 10SM CLR 23/19 A3008 RMK AO2 SLP178 T02280194 403500206 $

时间: 01:55 (05:55 UTC)

预报

该预报发布于27分钟前的05:28 UTC
预报有效从27日的 06点(UTC)到 28日的 06点(UTC)
风速节,风向
能見度: 10公里
少量云层高于25000英尺
从 27日的 2000点(UTC)
风速10节,风向西转西南,有时为18节阵风
能見度: 10公里
多云层高于7000英尺
从 27日的 2200点(UTC)
风速8节,风向西转西南
能見度: 10公里
散云层高于7000英尺
从 28日的 0200点(UTC)
风速2节,风向多变
能見度: 10公里
散云层高于25000英尺

TAF: KCHA 270528Z 2706/2806 00000KT P6SM FEW250 FM272000 24010G18KT P6SM BKN070 FM272200 24008KT P6SM SCT070 FM280200 VRB02KT P6SM SCT250

超过4000个机场的气象观测和天气预报(METAR&TAF报告)。

可查询的气象台以黄色和红色小点在地图上表示。

将鼠标移到小点上方,可查看气象台名称。

然后点击查看天气观测和预报。

如需切换地图:点击带黑十字的绿色按钮放大地图;点击带横线的绿色按钮缩小地图;或者点击绿色箭头查看邻近地区的地图。


METAR-TAF: